Time;durP1;ratioP1;P1;durP2;ratioP2;P2;SDS_P1;SDS_P2;PMS_P1;PMS_P2;Temp;Humidity;BMP_temperature;BMP_pressure;BME280_temperature;BME280_humidity;BME280_pressure;Samples;Min_cycle;Max_cycle;Signal;HPM_P1;HPM_P2
2023/03/24 00:02:00;;;;;;;7.63;6.90;;;8.60;99.90;9.70;96452.00;;;;4963969;28;20298;-87
2023/03/24 00:04:51;;;;;;;8.60;6.27;;;8.50;99.90;9.60;96441.00;;;;4967071;28;20264;-87
2023/03/24 00:07:41;;;;;;;8.47;6.03;;;8.50;99.90;10.00;96444.00;;;;4967367;28;20660;-87
2023/03/24 00:10:33;;;;;;;11.07;6.73;;;8.50;99.90;10.10;96437.00;;;;4980772;28;20202;-88
2023/03/24 00:13:22;;;;;;;7.10;6.13;;;8.60;99.90;10.10;96436.00;;;;4976777;28;20216;-89
2023/03/24 00:16:15;;;;;;;7.10;6.37;;;8.60;99.90;10.00;96429.00;;;;4973280;28;20211;-88
2023/03/24 00:19:04;;;;;;;9.20;6.20;;;8.60;99.90;9.70;96428.00;;;;4967824;28;20207;-88
2023/03/24 00:21:54;;;;;;;9.37;7.50;;;8.60;99.90;8.70;96430.00;;;;4972169;28;20211;-87
2023/03/24 00:24:45;;;;;;;9.90;6.77;;;8.40;99.90;9.60;96435.00;;;;4970296;28;20226;-88
2023/03/24 00:27:36;;;;;;;8.17;7.37;;;8.30;99.90;10.00;96434.00;;;;4969717;28;20511;-88
2023/03/24 00:30:25;;;;;;;9.93;7.80;;;8.40;99.90;10.00;96428.00;;;;4971202;28;20221;-88
2023/03/24 00:33:14;;;;;;;8.73;7.40;;;8.50;99.90;9.70;96421.00;;;;4972877;28;20575;-88
2023/03/24 00:36:06;;;;;;;7.80;7.03;;;8.50;99.90;9.80;96427.00;;;;4969219;28;20237;-88
2023/03/24 00:38:56;;;;;;;12.17;6.80;;;8.50;99.90;9.50;96421.00;;;;4969726;28;20211;-88
2023/03/24 00:41:46;;;;;;;8.63;7.37;;;8.40;99.90;9.40;96411.00;;;;4967334;28;20588;-89
2023/03/24 00:44:37;;;;;;;8.13;7.33;;;8.40;99.90;8.90;96409.00;;;;4969743;28;20281;-88
2023/03/24 00:47:26;;;;;;;8.17;6.57;;;8.20;99.90;8.20;96403.00;;;;4965127;28;20227;-88
2023/03/24 00:50:19;;;;;;;8.60;6.57;;;8.00;99.90;8.60;96405.00;;;;4967865;28;20207;-88
2023/03/24 00:53:08;;;;;;;8.83;7.07;;;7.80;99.90;8.90;96401.00;;;;4965864;28;20215;-88
2023/03/24 00:55:58;;;;;;;9.00;8.10;;;7.80;99.90;9.30;96404.00;;;;4966484;28;20711;-88
2023/03/24 00:58:47;;;;;;;7.83;6.30;;;7.90;99.90;9.50;96402.00;;;;4968891;28;20214;-87
2023/03/24 01:01:39;;;;;;;8.93;7.03;;;7.90;99.90;9.60;96402.00;;;;4966315;28;20504;-88
2023/03/24 01:04:29;;;;;;;7.13;6.47;;;8.00;99.90;9.50;96390.00;;;;4968293;28;20316;-87
2023/03/24 01:07:19;;;;;;;8.20;7.00;;;8.10;99.90;9.50;96393.00;;;;4967434;28;20265;-88
2023/03/24 01:10:09;;;;;;;11.37;7.37;;;8.20;99.90;9.30;96383.00;;;;4964490;28;20226;-88
2023/03/24 01:12:59;;;;;;;7.97;7.27;;;8.10;99.90;9.20;96388.00;;;;4963091;28;20208;-87
2023/03/24 01:15:49;;;;;;;10.70;7.00;;;8.10;99.90;8.90;96381.00;;;;4964179;28;20736;-88
2023/03/24 01:18:39;;;;;;;7.77;6.97;;;8.00;99.90;8.90;96380.00;;;;4965955;28;20684;-87
2023/03/24 01:21:28;;;;;;;8.17;7.23;;;7.90;99.90;9.00;96378.00;;;;4966383;28;21980;-87
2023/03/24 01:24:17;;;;;;;8.00;7.20;;;7.90;99.90;9.10;96379.00;;;;4963165;28;20234;-87
2023/03/24 01:27:06;;;;;;;7.93;7.23;;;7.90;99.90;9.50;96389.00;;;;4965665;28;20227;-87
2023/03/24 01:30:00;;;;;;;10.40;7.47;;;7.90;99.90;9.30;96387.00;;;;4964355;28;20211;-87
2023/03/24 01:32:49;;;;;;;10.20;6.17;;;8.00;99.90;8.90;96369.00;;;;4964974;28;20671;-88
2023/03/24 01:35:39;;;;;;;10.30;6.97;;;7.90;99.90;8.90;96369.00;;;;4963043;28;21059;-87
2023/03/24 01:38:28;;;;;;;10.77;8.17;;;7.80;99.90;8.80;96362.00;;;;4963198;28;20251;-87
2023/03/24 01:41:17;;;;;;;10.07;7.63;;;7.80;99.90;8.90;96367.00;;;;4964156;28;20250;-87
2023/03/24 01:44:29;;;;;;;10.53;6.70;;;7.70;99.90;8.80;96362.00;;;;4963450;28;20235;-87
2023/03/24 01:47:18;;;;;;;9.07;7.67;;;7.70;99.90;8.50;96358.00;;;;4964517;28;20278;-87
2023/03/24 01:50:07;;;;;;;8.50;7.60;;;7.60;99.90;8.20;96358.00;;;;4960553;28;20572;-88
2023/03/24 01:52:58;;;;;;;9.80;7.57;;;7.50;99.90;8.50;96358.00;;;;4964413;28;20317;-88
2023/03/24 01:55:48;;;;;;;9.70;7.93;;;7.40;99.90;8.90;96349.00;;;;4963280;28;20286;-87
2023/03/24 01:58:41;;;;;;;9.43;7.40;;;7.50;99.90;8.70;96358.00;;;;4964809;28;20231;-87
2023/03/24 02:01:31;;;;;;;9.30;6.50;;;7.50;99.90;9.00;96361.00;;;;4963786;28;20214;-88
2023/03/24 02:04:21;;;;;;;9.73;8.03;;;7.50;99.90;9.30;96363.00;;;;4964150;28;20933;-87
2023/03/24 02:07:16;;;;;;;8.93;8.03;;;7.60;99.90;9.20;96360.00;;;;4962788;28;20274;-88
2023/03/24 02:10:11;;;;;;;12.07;8.50;;;7.70;99.90;8.60;96354.00;;;;4961481;28;20597;-87
2023/03/24 02:13:00;;;;;;;8.17;7.00;;;7.60;99.90;8.20;96342.00;;;;4961587;28;20222;-87
2023/03/24 02:16:07;;;;;;;8.90;8.00;;;7.50;99.90;8.60;96350.00;;;;4962373;28;20301;-88
2023/03/24 02:19:22;;;;;;;9.20;7.67;;;7.40;99.90;8.90;96335.00;;;;4960797;28;20207;-88
2023/03/24 02:22:51;;;;;;;11.97;7.90;;;7.40;99.90;8.90;96338.00;;;;4961930;28;20200;-87
2023/03/24 02:26:21;;;;;;;14.07;6.67;;;7.50;99.90;9.10;96332.00;;;;4962939;28;20234;-87
2023/03/24 02:30:05;;;;;;;8.13;7.33;;;7.50;99.90;9.00;96339.00;;;;4964648;28;20312;-87
2023/03/24 02:33:46;;;;;;;10.73;7.73;;;7.60;99.90;8.20;96334.00;;;;4962558;28;20680;-87
2023/03/24 02:37:21;;;;;;;7.73;6.97;;;7.50;99.90;8.00;96325.00;;;;4961160;28;20643;-86
2023/03/24 02:40:33;;;;;;;10.77;7.23;;;7.30;99.90;8.60;96336.00;;;;4957316;28;20254;-87
2023/03/24 02:43:33;;;;;;;8.17;7.37;;;7.30;99.90;8.50;96335.00;;;;4963138;28;20247;-87
2023/03/24 02:46:27;;;;;;;8.27;7.47;;;7.30;99.90;8.90;96314.00;;;;4969820;28;20231;-87
2023/03/24 02:49:26;;;;;;;9.67;7.93;;;7.40;99.90;8.70;96316.00;;;;4978345;28;20215;-88
2023/03/24 02:52:21;;;;;;;8.40;7.50;;;7.50;99.90;8.70;96320.00;;;;4970591;28;20467;-88
2023/03/24 02:55:16;;;;;;;7.97;7.27;;;7.40;99.90;8.50;96320.00;;;;4973885;28;20199;-88
2023/03/24 02:58:09;;;;;;;12.57;8.23;;;7.40;99.90;8.40;96316.00;;;;4972716;28;20719;-88
2023/03/24 03:01:05;;;;;;;9.07;6.90;;;7.30;99.90;8.60;96315.00;;;;4971284;28;20214;-88
2023/03/24 03:03:59;;;;;;;12.02;10.25;;;7.30;99.90;8.60;96316.00;;;;4968679;28;20952;-88
2023/03/24 03:06:54;;;;;;;8.97;8.07;;;7.40;99.90;9.00;96321.00;;;;4973900;28;20679;-88
2023/03/24 03:09:52;;;;;;;12.50;8.83;;;7.50;99.90;9.10;96318.00;;;;4971990;28;20207;-88
2023/03/24 03:12:43;;;;;;;9.27;7.60;;;7.60;99.90;9.10;96318.00;;;;4972057;28;20215;-88
2023/03/24 03:15:38;;;;;;;9.03;7.10;;;7.60;99.90;8.90;96306.00;;;;4968990;28;20780;-87
2023/03/24 03:18:33;;;;;;;8.13;7.33;;;7.60;99.90;8.80;96299.00;;;;4971188;28;20258;-88
2023/03/24 03:21:26;;;;;;;9.90;7.17;;;7.60;99.90;8.90;96306.00;;;;4970448;28;20239;-88
2023/03/24 03:24:25;;;;;;;8.87;6.83;;;7.50;99.90;8.70;96304.00;;;;4965349;28;20212;-87
2023/03/24 03:27:20;;;;;;;10.87;8.60;;;7.50;99.90;8.60;96307.00;;;;4968954;28;20231;-88
2023/03/24 03:30:17;;;;;;;13.53;10.57;;;7.40;99.90;8.40;96307.00;;;;4969460;28;20226;-88
2023/03/24 03:33:17;;;;;;;8.47;7.40;;;7.40;99.90;7.80;96302.00;;;;4969479;28;20218;-88
2023/03/24 03:36:10;;;;;;;12.33;8.03;;;7.20;99.90;7.70;96304.00;;;;4969586;28;20777;-87
2023/03/24 03:39:14;;;;;;;8.33;7.03;;;7.10;99.90;7.50;96296.00;;;;4966996;28;20199;-87
2023/03/24 03:42:05;;;;;;;8.13;7.33;;;7.00;99.90;7.70;96289.00;;;;4964118;28;20203;-88
2023/03/24 03:44:54;;;;;;;11.10;8.70;;;6.90;99.90;8.20;96292.00;;;;4965548;28;20210;-87
2023/03/24 03:47:43;;;;;;;11.13;9.63;;;7.00;99.90;8.50;96296.00;;;;4963105;28;20246;-87
2023/03/24 03:50:34;;;;;;;10.53;8.77;;;7.10;99.90;8.50;96291.00;;;;4965798;28;20557;-87
2023/03/24 03:53:30;;;;;;;12.27;7.13;;;7.10;99.90;7.60;96291.00;;;;4965490;28;20200;-88
2023/03/24 03:56:23;;;;;;;10.03;7.63;;;7.10;99.90;7.30;96283.00;;;;4963797;28;20224;-89
2023/03/24 03:59:25;;;;;;;13.83;8.10;;;6.90;99.90;7.20;96275.00;;;;4967447;28;20211;-88
2023/03/24 04:02:30;;;;;;;11.53;8.03;;;6.70;99.90;7.30;96273.00;;;;4965418;28;20396;-88
2023/03/24 04:05:28;;;;;;;9.73;8.43;;;6.60;99.90;7.70;96275.00;;;;4965533;28;20254;-87
2023/03/24 04:08:25;;;;;;;12.87;8.83;;;6.60;99.90;7.90;96271.00;;;;4965126;28;20285;-88
2023/03/24 04:11:39;;;;;;;11.07;9.67;;;6.70;99.90;8.20;96266.00;;;;4967014;28;20258;-88
2023/03/24 04:15:14;;;;;;;9.43;7.83;;;8.00;99.90;8.10;96256.00;;;;4964284;28;20200;-87
2023/03/24 04:18:20;;;;;;;11.30;9.60;;;6.90;99.90;7.70;96250.00;;;;4960617;28;20983;-87
2023/03/24 04:21:33;;;;;;;11.63;8.47;;;6.80;99.90;7.70;96252.00;;;;4964177;28;20215;-87
2023/03/24 04:24:39;;;;;;;9.67;8.67;;;6.80;99.90;7.40;96249.00;;;;4965612;28;20253;-87
2023/03/24 04:27:37;;;;;;;9.53;7.70;;;6.70;99.90;7.50;96253.00;;;;4965126;28;20231;-88
2023/03/24 04:30:33;;;;;;;11.33;10.13;;;6.70;99.90;7.90;96254.00;;;;4962856;28;20696;-86
2023/03/24 04:33:29;;;;;;;15.20;7.93;;;6.70;99.90;8.00;96260.00;;;;4967292;28;20273;-88
2023/03/24 04:36:26;;;;;;;11.27;8.77;;;6.80;99.90;8.20;96259.00;;;;4966813;28;20199;-87
2023/03/24 04:39:24;;;;;;;10.93;9.83;;;6.90;99.90;8.10;96249.00;;;;4965918;28;20241;-88
2023/03/24 04:42:20;;;;;;;9.93;8.80;;;6.90;99.90;8.30;96260.00;;;;4965008;28;20251;-87
2023/03/24 04:45:11;;;;;;;11.10;8.70;;;7.00;99.90;8.60;96265.00;;;;4962692;28;20661;-87
2023/03/24 04:48:03;;;;;;;18.00;8.37;;;7.10;99.90;8.70;96264.00;;;;4964430;28;20223;-88
2023/03/24 04:50:56;;;;;;;9.10;7.87;;;7.30;99.90;8.20;96251.00;;;;4964421;28;20503;-87
2023/03/24 04:53:45;;;;;;;9.70;8.20;;;7.30;99.90;7.70;96256.00;;;;4964880;28;20211;-87
2023/03/24 04:56:40;;;;;;;14.53;9.63;;;7.20;99.90;7.70;96248.00;;;;4968658;28;20219;-87
2023/03/24 04:59:33;;;;;;;9.60;8.50;;;7.10;99.90;7.50;96242.00;;;;4966217;28;20468;-88
2023/03/24 05:02:21;;;;;;;10.33;8.43;;;7.00;99.90;7.40;96228.00;;;;4964275;28;20695;-88
2023/03/24 05:05:11;;;;;;;9.53;8.17;;;6.80;99.90;7.30;96238.00;;;;4965667;28;20290;-87
2023/03/24 05:08:00;;;;;;;13.90;8.53;;;6.70;99.90;7.70;96230.00;;;;4965960;28;20226;-87
2023/03/24 05:10:49;;;;;;;9.93;8.23;;;6.70;99.90;7.40;96227.00;;;;4964712;28;20234;-90
2023/03/24 05:13:38;;;;;;;8.73;7.83;;;6.70;99.90;7.10;96235.00;;;;4964150;28;20212;-87
2023/03/24 05:16:28;;;;;;;10.47;8.17;;;6.60;99.90;7.20;96228.00;;;;4961846;28;20211;-90
2023/03/24 05:19:17;;;;;;;10.73;9.23;;;6.60;99.90;7.20;96236.00;;;;4959981;28;20203;-87
2023/03/24 05:22:06;;;;;;;9.03;8.13;;;6.60;99.90;7.90;96236.00;;;;4962574;28;20222;-86
2023/03/24 05:24:54;;;;;;;10.93;9.47;;;6.70;99.90;7.90;96236.00;;;;4979303;28;20230;-89
2023/03/24 05:27:44;;;;;;;12.30;10.13;;;6.80;99.90;8.20;96253.00;;;;4969851;28;20361;-88
2023/03/24 05:30:33;;;;;;;10.27;9.13;;;6.90;99.90;8.40;96253.00;;;;4968494;28;20308;-87
2023/03/24 05:33:23;;;;;;;11.47;9.07;;;7.00;99.90;8.20;96247.00;;;;4965812;28;20567;-87
2023/03/24 05:36:13;;;;;;;9.83;8.83;;;7.10;99.90;8.10;96254.00;;;;4966171;28;20212;-88
2023/03/24 05:39:01;;;;;;;12.07;9.27;;;7.10;99.90;8.10;96252.00;;;;4968079;28;20297;-87
2023/03/24 05:41:50;;;;;;;10.63;9.27;;;7.00;99.90;8.70;96257.00;;;;4966697;28;20203;-88
2023/03/24 05:44:39;;;;;;;10.20;9.10;;;7.20;99.90;8.80;96237.00;;;;4964588;28;20226;-87
2023/03/24 05:47:27;;;;;;;12.50;9.20;;;7.30;99.90;8.90;96236.00;;;;4967715;28;20730;-87
2023/03/24 05:50:18;;;;;;;15.40;9.37;;;7.40;99.90;9.00;96234.00;;;;4964697;28;20207;-86
2023/03/24 05:53:07;;;;;;;12.17;9.73;;;7.50;99.90;9.00;96228.00;;;;4966184;28;20294;-87
2023/03/24 05:55:57;;;;;;;9.73;7.77;;;7.60;99.90;8.80;96222.00;;;;4969795;28;20291;-87
2023/03/24 05:58:46;;;;;;;13.87;9.73;;;7.70;99.90;8.60;96216.00;;;;4969326;28;20688;-87
2023/03/24 06:01:34;;;;;;;12.77;8.87;;;7.70;99.90;8.70;96217.00;;;;4967187;28;20225;-89
2023/03/24 06:04:23;;;;;;;9.77;7.93;;;7.70;99.90;9.10;96213.00;;;;4968220;28;20581;-86
2023/03/24 06:07:14;;;;;;;14.53;10.27;;;7.80;99.90;9.00;96221.00;;;;4968989;28;20227;-88
2023/03/24 06:10:03;;;;;;;14.77;9.97;;;7.90;99.90;8.70;96216.00;;;;4964304;28;20207;-88
2023/03/24 06:12:52;;;;;;;11.50;10.07;;;7.90;99.90;8.90;96227.00;;;;4968188;28;20206;-85
2023/03/24 06:15:41;;;;;;;9.80;8.33;;;7.90;99.90;9.00;96219.00;;;;4967073;28;20207;-86
2023/03/24 06:18:30;;;;;;;13.00;9.80;;;7.90;99.90;8.80;96233.00;;;;4965655;28;20696;-86
2023/03/24 06:21:20;;;;;;;12.57;10.20;;;7.90;99.90;8.90;96230.00;;;;4964125;28;20210;-87
2023/03/24 06:24:13;;;;;;;11.63;9.97;;;7.90;99.90;9.20;96233.00;;;;4962323;28;20278;-87
2023/03/24 06:27:02;;;;;;;15.47;8.20;;;8.00;99.90;9.30;96239.00;;;;4967491;28;20590;-87
2023/03/24 06:29:52;;;;;;;12.67;9.53;;;8.10;99.90;9.90;96235.00;;;;4964089;28;20289;-86
2023/03/24 06:32:40;;;;;;;16.80;10.43;;;8.20;99.90;9.90;96233.00;;;;4971900;28;20219;-86
2023/03/24 06:35:30;;;;;;;12.00;9.23;;;8.40;99.90;10.10;96233.00;;;;4964212;28;20287;-87
2023/03/24 06:38:19;;;;;;;10.53;9.17;;;8.50;99.90;10.50;96220.00;;;;4964207;28;20230;-86
2023/03/24 06:41:12;;;;;;;10.43;9.30;;;8.70;99.90;10.60;96228.00;;;;4946373;28;20476;-87
2023/03/24 06:44:01;;;;;;;11.57;9.00;;;8.90;99.90;10.30;96222.00;;;;4945938;28;20551;-87
2023/03/24 06:46:50;;;;;;;10.37;8.80;;;9.00;99.90;10.00;96220.00;;;;4947326;28;20244;-87
2023/03/24 06:49:38;;;;;;;9.93;7.97;;;9.00;99.90;9.80;96220.00;;;;4944345;28;20200;-88
2023/03/24 06:52:27;;;;;;;13.60;9.07;;;8.90;99.90;9.90;96222.00;;;;4946606;28;22001;-88
2023/03/24 06:55:16;;;;;;;13.03;9.30;;;9.00;99.90;10.20;96228.00;;;;4943816;28;20207;-87
2023/03/24 06:58:07;;;;;;;14.03;10.17;;;9.00;99.90;10.70;96214.00;;;;4947448;28;20220;-87
2023/03/24 07:00:56;;;;;;;10.63;8.87;;;9.10;99.90;10.60;96219.00;;;;4944041;28;20295;-86
2023/03/24 07:03:44;;;;;;;11.13;8.90;;;9.20;99.90;10.40;96211.00;;;;4946094;28;20238;-88
2023/03/24 07:06:36;;;;;;;12.50;9.97;;;9.30;99.90;10.80;96210.00;;;;4945532;28;20573;-87
2023/03/24 07:09:31;;;;;;;33.47;19.50;;;9.40;99.90;11.20;96216.00;;;;4946314;28;20200;-88
2023/03/24 07:12:20;;;;;;;45.10;25.20;;;9.50;99.90;11.50;96208.00;;;;4946447;28;20598;-87
2023/03/24 07:15:13;;;;;;;27.33;17.63;;;9.70;99.90;11.40;96204.00;;;;4944913;28;20218;-86
2023/03/24 07:18:02;;;;;;;29.30;19.73;;;9.90;99.90;11.80;96210.00;;;;4943538;28;20219;-86
2023/03/24 07:20:51;;;;;;;27.73;18.13;;;10.00;99.90;11.80;96207.00;;;;4945325;28;20208;-88
2023/03/24 07:23:40;;;;;;;31.10;18.27;;;10.10;99.90;11.60;96208.00;;;;4945599;28;20436;-86
2023/03/24 07:26:29;;;;;;;16.97;11.40;;;10.20;99.90;11.70;96215.00;;;;4946152;28;20592;-87
2023/03/24 07:29:18;;;;;;;15.87;10.97;;;10.30;99.90;11.90;96221.00;;;;4943714;28;20205;-87
2023/03/24 07:32:08;;;;;;;13.30;10.60;;;10.40;99.90;12.10;96211.00;;;;4943960;28;20260;-88
2023/03/24 07:34:57;;;;;;;12.70;9.20;;;10.50;99.90;12.30;96201.00;;;;4944136;28;20214;-87
2023/03/24 07:37:46;;;;;;;16.07;10.93;;;10.60;99.90;12.60;96207.00;;;;4947618;28;20235;-87
2023/03/24 07:40:35;;;;;;;12.50;11.10;;;10.80;99.90;12.80;96203.00;;;;4947866;28;20660;-87
2023/03/24 07:43:23;;;;;;;12.20;10.23;;;10.90;99.90;12.80;96219.00;;;;4950054;28;20207;-86
2023/03/24 07:46:12;;;;;;;14.17;10.83;;;11.00;99.90;12.90;96198.00;;;;4948125;28;20204;-87
2023/03/24 07:49:03;;;;;;;12.13;8.77;;;11.20;99.90;13.10;96207.00;;;;4950171;28;20232;-86
2023/03/24 07:52:05;;;;;;;12.57;8.30;;;11.30;99.90;13.60;96204.00;;;;4946551;28;20208;-86
2023/03/24 07:54:53;;;;;;;12.90;8.47;;;11.50;99.90;14.00;96206.00;;;;4949065;28;20208;-86
2023/03/24 07:57:45;;;;;;;14.70;8.63;;;11.80;99.90;14.30;96192.00;;;;4949209;28;20298;-87
2023/03/24 08:00:34;;;;;;;10.83;7.73;;;12.00;99.90;14.30;96195.00;;;;4957794;28;20204;-84
2023/03/24 08:03:24;;;;;;;11.40;7.53;;;12.30;99.90;14.40;96190.00;;;;4963241;28;20208;-87
2023/03/24 08:06:16;;;;;;;14.27;8.37;;;12.40;99.90;14.60;96196.00;;;;4953370;28;20204;-86
2023/03/24 08:09:08;;;;;;;12.87;8.30;;;12.60;99.90;14.70;96191.00;;;;4950313;28;20242;-88
2023/03/24 08:11:56;;;;;;;12.90;7.33;;;12.70;99.90;14.80;96193.00;;;;4952204;28;20208;-86
2023/03/24 08:14:46;;;;;;;13.53;7.80;;;12.90;99.90;15.10;96188.00;;;;4952270;28;20594;-87
2023/03/24 08:17:36;;;;;;;11.20;7.53;;;13.00;99.90;14.90;96190.00;;;;4953271;28;20607;-87
2023/03/24 08:20:26;;;;;;;11.10;7.30;;;13.10;99.90;15.00;96195.00;;;;4950124;28;20216;-86
2023/03/24 08:23:16;;;;;;;12.17;7.57;;;13.20;99.90;14.80;96190.00;;;;4952445;28;20208;-86
2023/03/24 08:26:05;;;;;;;12.27;7.80;;;13.20;99.90;15.30;96194.00;;;;4953608;28;20231;-88
2023/03/24 08:28:54;;;;;;;10.90;7.70;;;13.30;99.90;15.40;96196.00;;;;4952138;28;20220;-86
2023/03/24 08:31:45;;;;;;;10.13;7.80;;;13.50;99.90;15.50;96185.00;;;;4947777;28;20208;-88
2023/03/24 08:34:34;;;;;;;12.73;7.70;;;16.10;99.90;15.60;96180.00;;;;4950713;28;20204;-85
2023/03/24 08:37:23;;;;;;;17.17;7.70;;;13.60;99.90;15.80;96183.00;;;;4946598;28;20220;-85
2023/03/24 08:40:18;;;;;;;9.67;8.07;;;13.70;99.90;16.00;96179.00;;;;4948462;28;20610;-86
2023/03/24 08:43:09;;;;;;;9.57;7.93;;;13.80;99.90;16.20;96177.00;;;;4947738;28;20219;-86
2023/03/24 08:46:00;;;;;;;10.53;8.03;;;13.90;99.90;16.20;96182.00;;;;4943958;28;20204;-84
2023/03/24 08:48:48;;;;;;;13.07;7.20;;;14.10;99.90;15.90;96190.00;;;;4947970;28;20247;-85
2023/03/24 08:51:37;;;;;;;11.70;7.67;;;14.10;99.90;15.90;96184.00;;;;4947556;28;20201;-84
2023/03/24 08:54:26;;;;;;;11.07;7.87;;;14.20;99.90;16.10;96184.00;;;;4946272;28;20203;-85
2023/03/24 08:57:17;;;;;;;16.13;8.23;;;14.30;99.90;16.10;96185.00;;;;4947638;28;20228;-83
2023/03/24 09:00:12;;;;;;;7.73;6.17;;;14.30;99.90;16.40;96183.00;;;;4951731;28;20233;-85
2023/03/24 09:03:01;;;;;;;7.57;6.77;;;14.40;99.90;16.30;96187.00;;;;4945263;28;20711;-85
2023/03/24 09:05:50;;;;;;;12.90;7.67;;;14.50;99.90;16.40;96181.00;;;;4946990;28;20215;-88
2023/03/24 09:08:39;;;;;;;13.17;7.90;;;14.70;99.90;16.40;96176.00;;;;4946962;28;20243;-87
2023/03/24 09:11:28;;;;;;;12.33;7.40;;;14.80;99.90;16.80;96176.00;;;;4946443;28;20247;-87
2023/03/24 09:14:18;;;;;;;13.63;7.67;;;14.90;99.90;17.20;96168.00;;;;4949575;28;20208;-87
2023/03/24 09:17:21;;;;;;;11.93;7.50;;;15.00;99.90;17.50;96164.00;;;;4942306;28;20235;-87
2023/03/24 09:20:13;;;;;;;16.93;7.60;;;15.30;99.90;16.90;96149.00;;;;4947069;28;21215;-88
2023/03/24 09:23:02;;;;;;;10.57;6.87;;;15.40;99.90;17.80;96150.00;;;;4944378;28;20553;-87
2023/03/24 09:25:52;;;;;;;8.00;7.10;;;15.60;99.90;18.20;96162.00;;;;4944658;28;20204;-88
2023/03/24 09:28:41;;;;;;;8.73;7.17;;;15.80;99.90;18.70;96163.00;;;;4944604;28;20236;-87
2023/03/24 09:31:31;;;;;;;9.80;7.27;;;16.10;99.90;19.00;96152.00;;;;4942195;28;20209;-88
2023/03/24 09:34:20;;;;;;;9.70;6.63;;;16.30;99.90;19.30;96146.00;;;;4942784;28;20215;-88
2023/03/24 09:37:09;;;;;;;11.63;7.33;;;16.60;99.90;19.20;96149.00;;;;4944929;28;20227;-87
2023/03/24 09:40:00;;;;;;;6.97;6.13;;;16.80;99.90;19.30;96142.00;;;;4945643;28;20238;-87
2023/03/24 09:42:55;;;;;;;11.30;6.93;;;16.90;99.90;19.90;96144.00;;;;4944556;28;20216;-88
2023/03/24 09:45:51;;;;;;;8.57;5.60;;;17.10;99.90;20.00;96153.00;;;;4942960;28;20229;-87
2023/03/24 09:48:47;;;;;;;10.37;6.93;;;17.40;99.90;19.80;96151.00;;;;4944993;28;20343;-88
2023/03/24 09:51:41;;;;;;;12.43;6.50;;;17.50;99.90;20.30;96149.00;;;;4946890;28;21085;-88
2023/03/24 09:54:41;;;;;;;10.80;6.40;;;17.70;99.80;20.50;96140.00;;;;4942107;28;20201;-88
2023/03/24 09:57:37;;;;;;;10.77;6.43;;;17.80;99.40;20.70;96123.00;;;;4946219;28;20227;-87
2023/03/24 10:00:29;;;;;;;10.93;6.73;;;18.00;98.90;21.10;96125.00;;;;4948069;29;20227;-87
2023/03/24 10:03:21;;;;;;;11.13;6.30;;;18.30;98.40;21.30;96124.00;;;;4947103;28;20287;-87
2023/03/24 10:06:20;;;;;;;7.67;5.87;;;18.60;96.70;21.80;96120.00;;;;4949397;29;20219;-88
2023/03/24 10:09:26;;;;;;;8.17;6.07;;;18.80;96.70;22.00;96121.00;;;;4949568;29;20234;-89
2023/03/24 10:12:28;;;;;;;8.43;5.57;;;19.10;95.80;22.20;96120.00;;;;4950746;28;20203;-86
2023/03/24 10:15:26;;;;;;;7.87;6.13;;;19.40;95.60;22.60;96117.00;;;;4951619;28;20206;-87
2023/03/24 10:18:36;;;;;;;7.30;6.57;;;19.60;95.00;22.40;96106.00;;;;4948351;28;20228;-87
2023/03/24 10:21:27;;;;;;;8.57;5.60;;;19.80;93.50;22.70;96117.00;;;;4947532;28;20290;-87
2023/03/24 10:24:23;;;;;;;9.43;6.50;;;20.00;92.80;23.00;96112.00;;;;4950033;28;20200;-88
2023/03/24 10:27:21;;;;;;;12.17;7.47;;;20.20;92.40;23.10;96118.00;;;;4950864;28;20319;-87
2023/03/24 10:30:17;;;;;;;8.40;5.47;;;20.40;91.50;22.90;96119.00;;;;4950033;29;21916;-87
2023/03/24 10:33:05;;;;;;;10.27;6.40;;;20.50;90.50;23.10;96102.00;;;;4948656;28;20211;-87
2023/03/24 10:36:01;;;;;;;11.03;5.43;;;20.60;90.10;23.50;96095.00;;;;4949341;29;20211;-87
2023/03/24 10:38:51;;;;;;;9.70;6.10;;;20.70;89.80;22.90;96104.00;;;;4945509;29;20211;-88
2023/03/24 10:41:42;;;;;;;7.83;6.70;;;;;23.50;96088.00;;;;4960039;28;20232;-87
2023/03/24 10:44:31;;;;;;;9.47;7.00;;;;;24.00;96088.00;;;;4963581;28;20214;-87
2023/03/24 10:47:24;;;;;;;7.97;6.37;;;;;24.70;96091.00;;;;4948476;28;20220;-88
2023/03/24 10:50:13;;;;;;;8.70;6.50;;;;;25.10;96082.00;;;;4951210;29;20224;-88
2023/03/24 10:53:09;;;;;;;5.57;4.83;;;;;24.40;96078.00;;;;4952092;28;20719;-90
2023/03/24 10:56:00;;;;;;;7.50;5.40;;;;;23.10;96092.00;;;;4948315;29;20291;-88
2023/03/24 10:58:50;;;;;;;8.20;5.87;;;;;24.20;96108.00;;;;4944711;29;20236;-87
2023/03/24 11:01:39;;;;;;;7.37;4.87;;;;;24.70;96096.00;;;;4945930;29;20979;-88
2023/03/24 11:04:29;;;;;;;6.20;5.60;;;;;25.10;96091.00;;;;4946765;29;20208;-88
2023/03/24 11:07:19;;;;;;;11.17;6.50;;;;;25.20;96095.00;;;;4950740;28;20228;-88
2023/03/24 11:10:15;;;;;;;7.17;5.47;;;;;25.50;96105.00;;;;4949182;28;20224;-90
2023/03/24 11:13:08;;;;;;;7.60;5.83;;;;;25.50;96097.00;;;;4947308;28;20208;-88
2023/03/24 11:16:10;;;;;;;6.83;6.20;;;;;25.10;96089.00;;;;4952883;28;20204;-88
2023/03/24 11:19:01;;;;;;;8.57;7.03;;;;;24.90;96095.00;;;;4954483;28;20211;-87
2023/03/24 11:21:53;;;;;;;8.50;5.57;;;;;24.80;96084.00;;;;4951415;29;20219;-88
2023/03/24 11:24:42;;;;;;;11.93;8.97;;;;;24.80;96080.00;;;;4954476;29;20208;-88
2023/03/24 11:27:31;;;;;;;7.37;5.93;;;;;24.60;96082.00;;;;4954022;28;20322;-89
2023/03/24 11:30:22;;;;;;;6.43;5.83;;;;;24.50;96078.00;;;;4951915;28;20235;-88
2023/03/24 11:33:18;;;;;;;6.83;5.17;;;;;24.40;96074.00;;;;4952101;29;20296;-89
2023/03/24 11:36:25;;;;;;;6.50;5.50;;;;;24.20;96067.00;;;;4952203;29;20241;-88
2023/03/24 11:39:20;;;;;;;6.17;5.33;;;;;24.10;96074.00;;;;4953889;28;20196;-88
2023/03/24 11:42:17;;;;;;;7.53;6.03;;;;;23.90;96071.00;;;;4953826;29;20627;-87
2023/03/24 11:45:26;;;;;;;7.30;5.47;;;;;23.90;96067.00;;;;4953592;28;20690;-88
2023/03/24 11:48:27;;;;;;;5.33;4.80;;;;;23.90;96065.00;;;;4951025;28;20223;-87
2023/03/24 11:51:17;;;;;;;6.60;5.90;;;;;23.70;96070.00;;;;4953558;29;20241;-88
2023/03/24 11:54:10;;;;;;;8.17;6.17;;;;;23.90;96070.00;;;;4952485;28;20216;-88
2023/03/24 11:57:03;;;;;;;5.90;5.10;;;;;23.90;96066.00;;;;4952165;28;20255;-88
2023/03/24 11:59:57;;;;;;;11.70;7.60;;;;;23.50;96059.00;;;;4952101;28;20247;-88
2023/03/24 12:03:00;;;;;;;8.07;6.03;;;;;23.60;96051.00;;;;4951895;28;20212;-88
2023/03/24 12:05:54;;;;;;;9.07;6.03;;;;;23.30;96055.00;;;;4953351;29;20207;-87
2023/03/24 12:08:53;;;;;;;8.43;7.00;;;;;22.90;96056.00;;;;4948389;28;20731;-86
2023/03/24 12:11:53;;;;;;;8.03;6.30;;;;;23.00;96052.00;;;;4951464;28;20242;-88
2023/03/24 12:14:53;;;;;;;9.80;5.93;;;;;23.70;96056.00;;;;4949144;28;20311;-88
2023/03/24 12:17:45;;;;;;;9.20;6.20;;;;;23.90;96044.00;;;;4943174;28;20238;-88
2023/03/24 12:20:38;;;;;;;8.67;6.20;;;;;24.00;96049.00;;;;4952286;28;20192;-88
2023/03/24 12:23:39;;;;;;;8.20;5.93;;;;;24.20;96039.00;;;;4952605;29;20204;-88
2023/03/24 12:26:29;;;;;;;9.10;6.53;;;;;24.30;96037.00;;;;4953893;28;20204;-88
2023/03/24 12:29:28;;;;;;;5.97;5.40;;;;;24.30;96037.00;;;;4951223;28;20224;-88
2023/03/24 12:32:26;;;;;;;6.70;5.87;;;;;24.40;96042.00;;;;4951455;28;20203;-88
2023/03/24 12:35:39;;;;;;;11.43;7.00;;;;;24.10;96041.00;;;;4953106;28;20263;-88
2023/03/24 12:38:44;;;;;;;11.77;7.57;;;;;23.80;96040.00;;;;4952024;28;20238;-88
2023/03/24 12:41:48;;;;;;;9.20;6.43;;;;;23.80;96041.00;;;;4953442;28;20220;-88
2023/03/24 12:45:03;;;;;;;10.77;6.33;;;;;23.90;96046.00;;;;4957440;28;20294;-88
2023/03/24 12:48:26;;;;;;;9.10;6.53;;;;;23.90;96045.00;;;;4935620;28;20271;-88
2023/03/24 12:51:24;;;;;;;11.20;6.60;;;;;23.80;96047.00;;;;4949347;29;20606;-88
2023/03/24 12:54:21;;;;;;;9.17;6.23;;;;;23.90;96045.00;;;;4949619;29;20240;-88
2023/03/24 12:57:13;;;;;;;6.73;6.13;;;;;23.80;96049.00;;;;4952973;28;20231;-88
2023/03/24 13:00:05;;;;;;;10.43;6.30;;;;;23.70;96044.00;;;;4949366;28;20203;-89
2023/03/24 13:03:00;;;;;;;7.33;6.23;;;;;23.70;96037.00;;;;4951300;29;20204;-89
2023/03/24 13:05:52;;;;;;;7.70;5.23;;;;;23.80;96030.00;;;;4948134;28;20681;-88
2023/03/24 13:08:48;;;;;;;10.47;8.03;;;;;23.60;96030.00;;;;4950447;29;20219;-88
2023/03/24 13:11:42;;;;;;;8.00;6.70;;;;;23.60;96028.00;;;;4948816;29;20227;-88
2023/03/24 13:14:34;;;;;;;8.20;7.07;;;;;23.30;96029.00;;;;4947875;28;20204;-88